createdAt,value
2017-05-09T00:00:17.950Z,42.40
2017-05-09T00:02:44.666Z,42.40
2017-05-09T00:05:11.342Z,42.40
2017-05-09T00:07:38.046Z,42.30
2017-05-09T00:10:04.829Z,42.30
2017-05-09T00:12:31.537Z,42.30
2017-05-09T00:14:58.241Z,42.20
2017-05-09T00:17:24.934Z,42.20
2017-05-09T00:19:51.630Z,42.10
2017-05-09T00:22:18.346Z,42.20
2017-05-09T00:24:45.780Z,42.30
2017-05-09T00:27:12.474Z,42.30
2017-05-09T00:29:39.175Z,42.40
2017-05-09T00:32:06.049Z,42.40
2017-05-09T00:34:32.757Z,42.40
2017-05-09T00:36:59.435Z,42.40
2017-05-09T00:39:26.162Z,42.40
2017-05-09T00:41:52.835Z,42.50
2017-05-09T00:44:19.587Z,42.40
2017-05-09T00:46:46.278Z,42.50
2017-05-09T00:49:12.962Z,42.40
2017-05-09T00:51:39.665Z,42.50
2017-05-09T00:54:06.376Z,42.40
2017-05-09T00:56:40.701Z,42.40
2017-05-09T00:59:07.375Z,42.40
2017-05-09T01:01:34.079Z,42.30
2017-05-09T01:04:01.497Z,42.50
2017-05-09T01:06:28.207Z,42.40
2017-05-09T01:08:54.889Z,42.40
2017-05-09T01:11:21.557Z,42.40
2017-05-09T01:13:48.253Z,42.60
2017-05-09T01:16:14.925Z,42.50
2017-05-09T01:18:42.362Z,42.40
2017-05-09T01:21:09.791Z,42.40
2017-05-09T01:23:36.498Z,42.40
2017-05-09T01:26:03.186Z,42.30
2017-05-09T01:28:29.877Z,42.40
2017-05-09T01:30:56.562Z,42.40
2017-05-09T01:33:23.274Z,42.50
2017-05-09T01:35:49.974Z,42.50
2017-05-09T01:38:16.653Z,42.50
2017-05-09T01:40:43.352Z,42.40
2017-05-09T01:43:10.064Z,42.40
2017-05-09T01:45:36.769Z,42.60
2017-05-09T01:48:03.439Z,42.50
2017-05-09T01:50:30.129Z,42.50
2017-05-09T01:52:56.810Z,42.40
2017-05-09T01:55:23.524Z,42.40
2017-05-09T01:57:50.189Z,42.50
2017-05-09T02:00:16.865Z,42.50
2017-05-09T02:02:43.567Z,42.50
2017-05-09T02:05:10.245Z,42.50
2017-05-09T02:07:36.945Z,42.50
2017-05-09T02:10:03.629Z,42.50
2017-05-09T02:12:30.318Z,42.60
2017-05-09T02:14:57.114Z,42.50
2017-05-09T02:17:23.822Z,42.60
2017-05-09T02:19:50.513Z,43.30
2017-05-09T02:22:17.194Z,42.60
2017-05-09T02:24:43.888Z,42.50
2017-05-09T02:27:10.601Z,42.60
2017-05-09T02:29:37.301Z,42.60
2017-05-09T02:32:03.990Z,42.60
2017-05-09T02:34:30.678Z,42.70
2017-05-09T02:36:57.365Z,42.60
2017-05-09T02:39:24.051Z,42.60
2017-05-09T02:41:50.738Z,42.70
2017-05-09T02:44:17.414Z,42.70
2017-05-09T02:46:44.135Z,42.60
2017-05-09T02:49:10.899Z,42.70
2017-05-09T02:51:37.615Z,42.60
2017-05-09T02:54:04.310Z,42.70
2017-05-09T02:56:31.852Z,42.70
2017-05-09T02:58:58.630Z,42.70
2017-05-09T03:01:25.396Z,42.70
2017-05-09T03:03:52.207Z,42.70
2017-05-09T03:06:19.021Z,42.70
2017-05-09T03:08:45.810Z,42.80
2017-05-09T03:11:12.638Z,42.80
2017-05-09T03:13:39.437Z,42.80
2017-05-09T03:16:06.143Z,42.70
2017-05-09T03:18:32.869Z,42.70
2017-05-09T03:20:59.574Z,42.60
2017-05-09T03:23:26.299Z,42.60
2017-05-09T03:25:53.011Z,42.60
2017-05-09T03:28:19.689Z,42.60
2017-05-09T03:30:46.403Z,42.50
2017-05-09T03:33:13.091Z,42.60
2017-05-09T03:35:39.813Z,42.60
2017-05-09T03:38:07.255Z,42.70
2017-05-09T03:40:33.938Z,42.60
2017-05-09T03:43:00.634Z,42.70
2017-05-09T03:45:27.350Z,43.20
2017-05-09T03:47:54.054Z,42.70
2017-05-09T03:50:20.749Z,42.70
2017-05-09T03:52:47.446Z,42.90
2017-05-09T03:55:14.167Z,42.60
2017-05-09T03:57:40.858Z,42.60
2017-05-09T04:00:07.550Z,42.60
2017-05-09T04:02:34.262Z,42.50
2017-05-09T04:05:00.941Z,42.50
2017-05-09T04:07:27.623Z,42.60
2017-05-09T04:09:54.407Z,42.60
2017-05-09T04:12:21.080Z,42.60
2017-05-09T04:14:47.860Z,42.60
2017-05-09T04:17:14.543Z,42.60
2017-05-09T04:19:41.214Z,42.60
2017-05-09T04:22:07.918Z,42.50
2017-05-09T04:24:34.631Z,42.50
2017-05-09T04:27:01.365Z,42.40
2017-05-09T04:29:28.068Z,42.40
2017-05-09T04:31:54.743Z,42.40
2017-05-09T04:34:21.452Z,42.40
2017-05-09T04:36:48.162Z,43.00
2017-05-09T04:39:14.828Z,42.30
2017-05-09T04:41:41.514Z,42.40
2017-05-09T04:44:08.234Z,42.40
2017-05-09T04:46:34.934Z,42.40
2017-05-09T04:49:01.622Z,42.30
2017-05-09T04:51:28.444Z,42.30
2017-05-09T04:53:55.863Z,42.30
2017-05-09T04:56:22.550Z,42.20
2017-05-09T04:58:49.241Z,42.10
2017-05-09T05:01:15.959Z,42.10
2017-05-09T05:03:42.670Z,42.10
2017-05-09T05:06:09.357Z,42.00
2017-05-09T05:08:36.076Z,42.00
2017-05-09T05:11:03.019Z,42.00
2017-05-09T05:13:29.738Z,42.00
2017-05-09T05:15:56.445Z,42.00
2017-05-09T05:18:23.129Z,42.00
2017-05-09T05:20:49.826Z,42.00
2017-05-09T05:23:16.506Z,42.00
2017-05-09T05:25:43.195Z,41.90
2017-05-09T05:28:09.878Z,41.90
2017-05-09T05:30:36.574Z,41.80
2017-05-09T05:33:03.253Z,41.70
2017-05-09T05:35:30.086Z,41.60
2017-05-09T05:37:56.940Z,41.50
2017-05-09T05:40:23.629Z,41.10
2017-05-09T05:42:50.329Z,40.30
2017-05-09T05:45:17.052Z,39.30
2017-05-09T05:47:43.749Z,39.30
2017-05-09T05:50:10.687Z,39.50
2017-05-09T05:52:37.572Z,39.60
2017-05-09T05:55:11.366Z,39.70
2017-05-09T05:57:38.116Z,39.70
2017-05-09T06:00:04.857Z,39.60
2017-05-09T06:02:31.585Z,39.10
2017-05-09T06:04:58.282Z,38.50
2017-05-09T06:07:24.961Z,38.60
2017-05-09T06:09:52.389Z,37.20
2017-05-09T06:12:19.085Z,35.10
2017-05-09T06:14:45.778Z,34.20
2017-05-09T06:17:12.466Z,34.20
2017-05-09T06:19:39.229Z,34.40
2017-05-09T06:22:05.941Z,34.00
2017-05-09T06:24:32.701Z,34.50
2017-05-09T06:26:59.405Z,35.20
2017-05-09T06:29:26.097Z,35.50
2017-05-09T06:31:52.773Z,34.90
2017-05-09T06:34:19.474Z,33.50
2017-05-09T06:36:46.162Z,33.00
2017-05-09T06:39:12.834Z,32.20
2017-05-09T06:41:39.554Z,31.70
2017-05-09T06:44:06.270Z,30.00
2017-05-09T06:46:33.717Z,29.20
2017-05-09T06:49:01.138Z,28.70
2017-05-09T06:51:27.822Z,28.80
2017-05-09T06:53:54.536Z,28.50
2017-05-09T06:56:21.206Z,28.20
2017-05-09T06:58:47.904Z,28.40
2017-05-09T07:01:14.693Z,28.90
2017-05-09T07:03:41.375Z,28.90
2017-05-09T07:06:08.201Z,28.50
2017-05-09T07:08:34.902Z,28.10
2017-05-09T07:11:01.581Z,27.90
2017-05-09T07:13:28.261Z,27.80
2017-05-09T07:15:55.682Z,28.50
2017-05-09T07:18:22.530Z,29.60
2017-05-09T07:20:49.216Z,30.70
2017-05-09T07:23:15.901Z,31.30
2017-05-09T07:25:42.602Z,31.20
2017-05-09T07:28:09.296Z,31.00
2017-05-09T07:30:36.010Z,29.80
2017-05-09T07:33:02.762Z,29.10
2017-05-09T07:35:29.522Z,29.00
2017-05-09T07:37:56.331Z,29.20
2017-05-09T07:40:23.021Z,29.60
2017-05-09T07:42:50.466Z,29.90
2017-05-09T07:45:17.154Z,30.90
2017-05-09T07:47:43.855Z,31.20
2017-05-09T07:50:11.322Z,31.10
2017-05-09T07:52:38.750Z,31.40
2017-05-09T07:55:05.485Z,31.50
2017-05-09T07:57:32.162Z,32.00
2017-05-09T07:59:58.850Z,32.10
2017-05-09T08:02:25.545Z,32.20
2017-05-09T08:04:52.250Z,32.20
2017-05-09T08:07:18.931Z,32.20
2017-05-09T08:09:45.616Z,32.30
2017-05-09T08:12:13.055Z,32.10
2017-05-09T08:14:39.798Z,32.20
2017-05-09T08:17:06.480Z,32.10
2017-05-09T08:19:33.152Z,32.10
2017-05-09T08:21:59.858Z,32.10
2017-05-09T08:24:27.290Z,32.20
2017-05-09T08:26:53.994Z,32.20
2017-05-09T08:29:20.682Z,32.20
2017-05-09T08:31:47.498Z,32.70
2017-05-09T08:34:14.174Z,32.90
2017-05-09T08:36:40.874Z,32.90
2017-05-09T08:39:07.547Z,32.80
2017-05-09T08:41:34.981Z,33.00
2017-05-09T08:44:01.669Z,33.20
2017-05-09T08:46:28.362Z,33.30
2017-05-09T08:48:55.040Z,33.60
2017-05-09T08:51:21.725Z,33.20
2017-05-09T08:53:48.408Z,33.20
2017-05-09T08:56:15.114Z,33.30
2017-05-09T08:58:41.793Z,33.30
2017-05-09T09:01:08.489Z,33.40
2017-05-09T09:03:35.249Z,33.50
2017-05-09T09:06:02.677Z,33.50
2017-05-09T09:08:29.342Z,33.50
2017-05-09T09:10:56.784Z,33.60
2017-05-09T09:13:23.482Z,33.70
2017-05-09T09:15:50.150Z,33.80
2017-05-09T09:18:16.842Z,33.90
2017-05-09T09:20:43.550Z,34.00
2017-05-09T09:23:10.250Z,34.10
2017-05-09T09:25:36.916Z,34.20
2017-05-09T09:28:03.609Z,34.40
2017-05-09T09:30:30.297Z,34.50
2017-05-09T09:32:56.982Z,34.50
2017-05-09T09:35:23.642Z,34.70
2017-05-09T09:37:50.346Z,34.70
2017-05-09T09:40:17.033Z,35.10
2017-05-09T09:42:43.715Z,34.90
2017-05-09T09:45:11.142Z,34.90
2017-05-09T09:47:37.834Z,35.10
2017-05-09T09:50:04.522Z,35.20
2017-05-09T09:52:31.223Z,35.20
2017-05-09T09:54:57.891Z,35.30
2017-05-09T09:57:24.586Z,35.30
2017-05-09T09:59:51.265Z,35.30
2017-05-09T10:02:17.951Z,35.30
2017-05-09T10:04:44.633Z,35.30
2017-05-09T10:07:11.390Z,35.30
2017-05-09T10:09:38.077Z,36.00
2017-05-09T10:12:04.783Z,35.40
2017-05-09T10:14:31.482Z,35.50
2017-05-09T10:16:58.203Z,35.50
2017-05-09T10:19:24.885Z,35.60
2017-05-09T10:21:51.604Z,35.60
2017-05-09T10:24:18.294Z,35.60
2017-05-09T10:26:45.721Z,35.60
2017-05-09T10:29:12.442Z,35.60
2017-05-09T10:31:39.126Z,35.60
2017-05-09T10:34:05.836Z,35.70
2017-05-09T10:36:32.519Z,35.50
2017-05-09T10:38:59.216Z,35.70
2017-05-09T10:41:25.910Z,35.60
2017-05-09T10:43:52.597Z,35.70
2017-05-09T10:46:19.307Z,36.20
2017-05-09T10:48:46.035Z,35.50
2017-05-09T10:51:12.730Z,35.40
2017-05-09T10:53:39.417Z,35.60
2017-05-09T10:56:06.142Z,35.60
2017-05-09T10:58:32.832Z,35.40
2017-05-09T11:00:59.523Z,35.40
2017-05-09T11:03:26.254Z,35.40
2017-05-09T11:05:52.930Z,35.40
2017-05-09T11:08:19.634Z,35.40
2017-05-09T11:10:46.330Z,35.40
2017-05-09T11:13:12.998Z,35.50
2017-05-09T11:15:39.725Z,35.50
2017-05-09T11:18:06.402Z,35.60
2017-05-09T11:20:33.110Z,35.60
2017-05-09T11:23:00.550Z,35.60
2017-05-09T11:25:27.261Z,35.50
2017-05-09T11:27:53.938Z,36.00
2017-05-09T11:30:20.614Z,35.40
2017-05-09T11:32:47.295Z,35.30
2017-05-09T11:35:13.989Z,35.40
2017-05-09T11:37:40.666Z,35.30
2017-05-09T11:40:07.363Z,35.40
2017-05-09T11:42:34.025Z,35.50
2017-05-09T11:45:00.701Z,35.50
2017-05-09T11:47:28.122Z,35.60
2017-05-09T11:49:54.822Z,35.50
2017-05-09T11:52:21.499Z,35.50
2017-05-09T11:54:48.182Z,35.40
2017-05-09T11:57:14.870Z,35.30
2017-05-09T11:59:41.546Z,35.30
2017-05-09T12:02:08.242Z,35.30
2017-05-09T12:04:34.959Z,35.30
2017-05-09T12:07:01.642Z,35.20
2017-05-09T12:09:28.335Z,35.30
2017-05-09T12:11:55.017Z,35.30
2017-05-09T12:14:21.717Z,35.30
2017-05-09T12:16:48.407Z,35.30
2017-05-09T12:19:15.091Z,35.30
2017-05-09T12:21:41.778Z,35.40
2017-05-09T12:24:08.449Z,35.30
2017-05-09T12:26:35.130Z,35.40
2017-05-09T12:29:01.801Z,35.50
2017-05-09T12:31:28.499Z,35.30
2017-05-09T12:33:55.176Z,35.30
2017-05-09T12:36:21.854Z,35.20
2017-05-09T12:38:48.533Z,35.30
2017-05-09T12:41:15.213Z,35.20
2017-05-09T12:43:42.663Z,35.20
2017-05-09T12:46:10.233Z,35.30
2017-05-09T12:48:36.914Z,35.20
2017-05-09T12:51:03.611Z,35.10
2017-05-09T12:53:31.047Z,35.10
2017-05-09T12:55:57.733Z,35.10
2017-05-09T12:58:24.441Z,35.10
2017-05-09T13:00:51.119Z,35.10
2017-05-09T13:03:17.830Z,35.10
2017-05-09T13:05:44.506Z,35.10
2017-05-09T13:08:11.206Z,35.00
2017-05-09T13:10:38.626Z,35.10
2017-05-09T13:13:05.317Z,35.20
2017-05-09T13:15:32.047Z,35.30
2017-05-09T13:17:58.742Z,35.20
2017-05-09T13:20:25.410Z,35.10
2017-05-09T13:22:52.085Z,35.10
2017-05-09T13:25:18.761Z,35.20
2017-05-09T13:27:45.441Z,35.20
2017-05-09T13:30:12.137Z,35.20
2017-05-09T13:32:38.823Z,35.30
2017-05-09T13:35:05.511Z,35.30
2017-05-09T13:37:32.258Z,35.40
2017-05-09T13:39:59.036Z,35.30
2017-05-09T13:42:25.721Z,35.30
2017-05-09T13:44:52.425Z,35.10
2017-05-09T13:47:19.097Z,35.30
2017-05-09T13:49:45.786Z,35.10
2017-05-09T13:52:13.237Z,35.20
2017-05-09T13:54:39.913Z,35.30
2017-05-09T13:57:06.577Z,35.40
2017-05-09T13:59:33.294Z,35.50
2017-05-09T14:01:59.970Z,35.50
2017-05-09T14:04:26.693Z,36.00
2017-05-09T14:06:53.378Z,35.50
2017-05-09T14:09:20.069Z,35.40
2017-05-09T14:11:46.764Z,35.40
2017-05-09T14:14:13.497Z,35.40
2017-05-09T14:16:40.206Z,35.20
2017-05-09T14:19:06.911Z,35.20
2017-05-09T14:21:33.597Z,35.20
2017-05-09T14:24:00.289Z,35.00
2017-05-09T14:26:27.013Z,35.30
2017-05-09T14:28:53.711Z,35.20
2017-05-09T14:31:20.397Z,35.20
2017-05-09T14:33:47.092Z,35.10
2017-05-09T14:36:13.825Z,35.30
2017-05-09T14:38:41.277Z,35.20
2017-05-09T14:41:07.961Z,35.40
2017-05-09T14:43:34.657Z,35.40
2017-05-09T14:46:01.353Z,35.50
2017-05-09T14:48:28.026Z,35.50
2017-05-09T14:50:54.715Z,35.60
2017-05-09T14:53:21.422Z,35.50
2017-05-09T14:55:48.118Z,35.40
2017-05-09T14:58:14.846Z,35.50
2017-05-09T15:00:41.555Z,35.40
2017-05-09T15:03:08.233Z,35.40
2017-05-09T15:05:34.923Z,35.50
2017-05-09T15:08:01.594Z,35.60
2017-05-09T15:10:28.318Z,35.70
2017-05-09T15:12:54.994Z,36.30
2017-05-09T15:15:21.711Z,35.70
2017-05-09T15:17:48.424Z,35.90
2017-05-09T15:20:15.093Z,36.00
2017-05-09T15:22:41.789Z,36.00
2017-05-09T15:25:08.470Z,36.00
2017-05-09T15:27:35.145Z,36.00
2017-05-09T15:30:01.875Z,36.00
2017-05-09T15:32:28.558Z,36.10
2017-05-09T15:34:55.331Z,36.10
2017-05-09T15:37:22.034Z,36.10
2017-05-09T15:39:48.710Z,36.10
2017-05-09T15:42:15.386Z,36.10
2017-05-09T15:44:42.090Z,36.00
2017-05-09T15:47:08.778Z,36.10
2017-05-09T15:49:35.478Z,36.10
2017-05-09T15:52:02.153Z,36.10
2017-05-09T15:54:29.570Z,36.10
2017-05-09T15:56:56.289Z,36.10
2017-05-09T15:59:23.196Z,36.20
2017-05-09T16:01:49.874Z,36.30
2017-05-09T16:04:16.571Z,36.30
2017-05-09T16:06:43.263Z,36.30
2017-05-09T16:09:09.960Z,36.30
2017-05-09T16:11:37.394Z,36.20
2017-05-09T16:14:04.058Z,36.40
2017-05-09T16:16:31.481Z,36.50
2017-05-09T16:18:58.150Z,36.60
2017-05-09T16:21:25.683Z,36.60
2017-05-09T16:23:52.726Z,36.70
2017-05-09T16:26:19.442Z,36.70
2017-05-09T16:28:46.138Z,36.70
2017-05-09T16:31:12.871Z,36.70
2017-05-09T16:33:40.314Z,36.80
2017-05-09T16:36:07.005Z,36.90
2017-05-09T16:38:33.685Z,37.00
2017-05-09T16:41:00.366Z,37.00
2017-05-09T16:43:27.040Z,37.00
2017-05-09T16:45:53.758Z,37.00
2017-05-09T16:48:20.426Z,37.00
2017-05-09T16:50:47.113Z,37.10
2017-05-09T16:53:13.798Z,37.10
2017-05-09T16:55:40.498Z,37.20
2017-05-09T16:58:07.188Z,37.30
2017-05-09T17:00:33.936Z,37.30
2017-05-09T17:03:00.672Z,37.30
2017-05-09T17:05:27.356Z,37.30
2017-05-09T17:07:54.097Z,37.30
2017-05-09T17:10:20.770Z,37.50
2017-05-09T17:12:47.481Z,37.40
2017-05-09T17:15:14.154Z,37.40
2017-05-09T17:17:40.829Z,37.40
2017-05-09T17:20:08.242Z,37.40
2017-05-09T17:22:34.917Z,37.50
2017-05-09T17:25:01.601Z,37.50
2017-05-09T17:27:28.323Z,37.60
2017-05-09T17:29:55.069Z,37.60
2017-05-09T17:32:21.762Z,37.50
2017-05-09T17:34:48.481Z,37.70
2017-05-09T17:37:15.159Z,37.70
2017-05-09T17:39:41.850Z,37.80
2017-05-09T17:42:08.553Z,37.70
2017-05-09T17:44:35.294Z,38.10
2017-05-09T17:47:01.971Z,37.90
2017-05-09T17:49:28.721Z,37.80
2017-05-09T17:51:55.401Z,37.80
2017-05-09T17:54:22.831Z,37.60
2017-05-09T17:56:49.541Z,37.70
2017-05-09T17:59:16.239Z,37.90
2017-05-09T18:01:43.766Z,37.80
2017-05-09T18:04:10.513Z,38.00
2017-05-09T18:06:37.201Z,37.80
2017-05-09T18:09:03.913Z,37.70
2017-05-09T18:11:31.321Z,37.60
2017-05-09T18:13:58.005Z,37.80
2017-05-09T18:16:25.450Z,37.80
2017-05-09T18:18:52.962Z,37.90
2017-05-09T18:21:19.665Z,37.90
2017-05-09T18:23:46.455Z,38.10
2017-05-09T18:26:13.142Z,37.90
2017-05-09T18:28:39.877Z,37.90
2017-05-09T18:31:07.294Z,37.70
2017-05-09T18:33:33.976Z,38.00
2017-05-09T18:36:01.406Z,37.90
2017-05-09T18:38:28.166Z,38.20
2017-05-09T18:40:54.865Z,38.30
2017-05-09T18:43:21.558Z,38.10
2017-05-09T18:45:48.238Z,38.20
2017-05-09T18:48:14.966Z,38.30
2017-05-09T18:50:41.669Z,38.30
2017-05-09T18:53:08.357Z,38.40
2017-05-09T18:55:35.021Z,38.40
2017-05-09T18:58:01.722Z,38.60
2017-05-09T19:00:28.427Z,38.60
2017-05-09T19:02:55.135Z,38.60
2017-05-09T19:05:21.833Z,38.60
2017-05-09T19:07:48.535Z,38.50
2017-05-09T19:10:15.213Z,38.60
2017-05-09T19:12:41.890Z,38.70
2017-05-09T19:15:08.581Z,38.60
2017-05-09T19:17:35.254Z,38.70
2017-05-09T19:20:01.958Z,38.50
2017-05-09T19:22:28.629Z,38.60
2017-05-09T19:24:55.336Z,38.70
2017-05-09T19:27:22.026Z,38.60
2017-05-09T19:29:48.718Z,38.70
2017-05-09T19:32:15.391Z,38.80
2017-05-09T19:34:42.117Z,38.70
2017-05-09T19:37:08.801Z,38.60
2017-05-09T19:39:36.350Z,38.70
2017-05-09T19:42:03.029Z,38.70
2017-05-09T19:44:29.726Z,38.60
2017-05-09T19:46:56.407Z,38.80
2017-05-09T19:49:23.121Z,38.60
2017-05-09T19:51:49.820Z,39.00
2017-05-09T19:54:16.537Z,38.80
2017-05-09T19:56:43.325Z,38.90
2017-05-09T19:59:10.029Z,38.80
2017-05-09T20:01:36.722Z,39.00
2017-05-09T20:04:03.421Z,39.00
2017-05-09T20:06:30.118Z,39.20
2017-05-09T20:08:56.893Z,39.00
2017-05-09T20:11:23.574Z,39.10
2017-05-09T20:13:50.301Z,39.00
2017-05-09T20:16:17.781Z,39.10
2017-05-09T20:18:44.450Z,39.10
2017-05-09T20:21:11.211Z,39.00
2017-05-09T20:23:37.881Z,39.00
2017-05-09T20:26:05.341Z,39.00
2017-05-09T20:28:32.777Z,39.10
2017-05-09T20:30:59.454Z,39.00
2017-05-09T20:33:26.138Z,39.00
2017-05-09T20:35:52.814Z,38.90
2017-05-09T20:38:19.502Z,38.80
2017-05-09T20:40:46.205Z,39.00
2017-05-09T20:43:12.874Z,38.90
2017-05-09T20:45:39.560Z,39.10
2017-05-09T20:48:06.246Z,39.10
2017-05-09T20:50:32.946Z,39.10
2017-05-09T20:53:00.345Z,39.10
2017-05-09T20:55:27.042Z,39.20
2017-05-09T20:57:54.454Z,39.20
2017-05-09T21:00:21.133Z,39.20
2017-05-09T21:02:48.564Z,39.20
2017-05-09T21:05:15.373Z,39.20
2017-05-09T21:07:42.063Z,39.20
2017-05-09T21:10:09.522Z,39.20
2017-05-09T21:12:36.256Z,39.90
2017-05-09T21:15:02.985Z,39.40
2017-05-09T21:17:29.695Z,39.20
2017-05-09T21:19:56.386Z,39.20
2017-05-09T21:22:23.861Z,39.20
2017-05-09T21:24:50.541Z,39.20
2017-05-09T21:27:17.266Z,39.30
2017-05-09T21:29:43.946Z,39.30
2017-05-09T21:32:11.381Z,39.20
2017-05-09T21:34:38.066Z,39.20
2017-05-09T21:37:04.761Z,39.10
2017-05-09T21:39:31.425Z,39.30
2017-05-09T21:41:58.857Z,39.20
2017-05-09T21:44:25.541Z,39.10
2017-05-09T21:46:52.242Z,39.30
2017-05-09T21:49:18.917Z,39.20
2017-05-09T21:51:45.614Z,39.30
2017-05-09T21:54:12.286Z,39.40
2017-05-09T21:56:38.973Z,39.30
2017-05-09T21:59:05.649Z,39.30
2017-05-09T22:01:32.345Z,39.50
2017-05-09T22:03:59.027Z,39.50
2017-05-09T22:06:26.454Z,39.40
2017-05-09T22:08:53.117Z,39.20
2017-05-09T22:11:20.545Z,39.30
2017-05-09T22:13:47.270Z,39.40
2017-05-09T22:16:14.001Z,39.30
2017-05-09T22:18:40.733Z,39.40
2017-05-09T22:21:07.425Z,39.50
2017-05-09T22:23:34.113Z,39.40
2017-05-09T22:26:00.820Z,39.50
2017-05-09T22:28:27.498Z,39.50
2017-05-09T22:30:54.193Z,39.50
2017-05-09T22:33:21.693Z,39.30
2017-05-09T22:35:48.373Z,39.50
2017-05-09T22:38:15.073Z,39.60
2017-05-09T22:40:41.741Z,39.50
2017-05-09T22:43:08.427Z,39.50
2017-05-09T22:45:35.121Z,39.60
2017-05-09T22:48:01.822Z,39.60
2017-05-09T22:50:28.546Z,39.40
2017-05-09T22:52:55.234Z,39.50
2017-05-09T22:55:21.934Z,39.50
2017-05-09T22:57:48.676Z,39.50
2017-05-09T23:00:15.377Z,39.60
2017-05-09T23:02:42.806Z,39.60
2017-05-09T23:05:09.489Z,39.60
2017-05-09T23:07:36.190Z,39.70
2017-05-09T23:10:02.873Z,39.60
2017-05-09T23:12:29.573Z,39.70
2017-05-09T23:14:56.272Z,39.50
2017-05-09T23:17:22.966Z,39.60
2017-05-09T23:19:50.430Z,39.60
2017-05-09T23:22:17.952Z,39.60
2017-05-09T23:24:44.654Z,39.70
2017-05-09T23:27:11.369Z,39.60
2017-05-09T23:29:38.049Z,39.50
2017-05-09T23:32:04.794Z,39.50
2017-05-09T23:34:31.558Z,39.60
2017-05-09T23:36:58.226Z,39.50
2017-05-09T23:39:24.929Z,39.80
2017-05-09T23:41:51.602Z,39.60
2017-05-09T23:44:18.298Z,39.70
2017-05-09T23:46:44.989Z,40.10
2017-05-09T23:49:11.893Z,39.60
2017-05-09T23:51:38.750Z,39.60
2017-05-09T23:54:06.366Z,39.70
2017-05-09T23:56:33.230Z,39.60
2017-05-09T23:59:00.020Z,39.70
